Time;durP1;ratioP1;P1;durP2;ratioP2;P2;SDS_P1;SDS_P2;PMS_P1;PMS_P2;Temp;Humidity;BMP_temperature;BMP_pressure;BME280_temperature;BME280_humidity;BME280_pressure;Samples;Min_cycle;Max_cycle;Signal;HPM_P1;HPM_P2
2022/01/04 00:02:14;;;;;;;23.02;4.32;;;8.00;99.90;;;;;;5069084;28;20414;-77
2022/01/04 00:04:40;;;;;;;18.60;4.20;;;8.00;99.90;;;;;;5069107;28;20040;-77
2022/01/04 00:07:05;;;;;;;23.45;4.47;;;8.10;99.90;;;;;;5051046;28;20414;-77
2022/01/04 00:09:34;;;;;;;28.27;5.88;;;8.00;99.90;;;;;;5050251;28;20088;-77
2022/01/04 00:13:21;;;;;;;32.83;5.43;;;8.10;99.90;;;;;;5050956;28;20574;-77
2022/01/04 00:14:45;;;;;;;24.67;5.65;;;8.10;99.90;;;;;;5051543;28;20051;-77
2022/01/04 00:17:10;;;;;;;19.45;5.32;;;8.10;99.90;;;;;;5052233;28;20044;-77
2022/01/04 00:19:36;;;;;;;23.48;5.65;;;8.10;99.90;;;;;;5041358;28;20079;-77
2022/01/04 00:22:04;;;;;;;28.90;6.45;;;8.10;99.90;;;;;;5090028;28;20105;-77
2022/01/04 00:24:29;;;;;;;26.58;6.47;;;8.10;99.90;;;;;;5089812;28;20052;-77
2022/01/04 00:26:55;;;;;;;27.98;6.88;;;8.10;99.90;;;;;;5071449;28;20052;-77
2022/01/04 00:29:20;;;;;;;26.20;5.78;;;8.00;99.90;;;;;;5072107;28;20414;-77
2022/01/04 00:31:46;;;;;;;23.33;5.75;;;8.00;99.90;;;;;;5071449;28;20055;-77
2022/01/04 00:34:12;;;;;;;27.27;7.30;;;8.00;99.90;;;;;;5070792;28;20051;-77
2022/01/04 00:36:37;;;;;;;29.67;6.78;;;7.90;99.90;;;;;;5070947;28;20062;-77
2022/01/04 00:39:03;;;;;;;20.08;5.38;;;7.90;99.90;;;;;;5070533;28;20199;-77
2022/01/04 00:41:29;;;;;;;21.90;6.03;;;7.90;99.90;;;;;;5070015;28;20040;-77
2022/01/04 00:43:54;;;;;;;23.33;6.57;;;7.80;99.90;;;;;;5070727;28;20117;-77
2022/01/04 00:46:20;;;;;;;27.13;6.55;;;7.80;99.90;;;;;;5070340;28;20244;-77
2022/01/04 00:51:30;;;;;;;25.17;6.60;;;7.80;99.90;;;;;;5071438;28;20098;-77
2022/01/04 00:53:55;;;;;;;25.92;6.40;;;7.70;99.90;;;;;;5071449;28;20044;-77
2022/01/04 00:56:21;;;;;;;23.92;6.90;;;7.70;99.90;;;;;;5071682;28;20040;-77
2022/01/04 00:58:47;;;;;;;29.95;7.53;;;7.70;99.90;;;;;;5071098;28;20123;-77
2022/01/04 01:01:12;;;;;;;18.42;6.72;;;7.70;99.90;;;;;;5071351;28;20079;-77
2022/01/04 01:03:38;;;;;;;27.35;6.57;;;7.70;99.90;;;;;;5071798;28;20198;-77
2022/01/04 01:06:04;;;;;;;24.58;5.95;;;7.70;99.90;;;;;;5071301;28;20501;-77
2022/01/04 01:08:30;;;;;;;36.92;7.53;;;7.70;99.90;;;;;;5071315;28;20048;-77
2022/01/04 01:10:56;;;;;;;33.05;8.60;;;7.80;99.90;;;;;;5075745;28;20509;-77
2022/01/04 01:13:22;;;;;;;28.95;7.65;;;7.70;99.90;;;;;;5058952;28;20555;-77
2022/01/04 01:15:47;;;;;;;27.48;6.82;;;7.70;99.90;;;;;;5075093;28;20498;-77
2022/01/04 01:18:17;;;;;;;25.08;8.07;;;7.70;99.90;;;;;;5093461;28;20410;-77
2022/01/04 01:20:47;;;;;;;31.58;7.35;;;7.70;99.90;;;;;;5076577;28;20088;-77
2022/01/04 01:23:13;;;;;;;29.58;7.78;;;7.70;99.90;;;;;;5037893;28;20151;-77
2022/01/04 01:25:38;;;;;;;27.45;8.18;;;7.70;99.90;;;;;;5072021;28;20525;-77
2022/01/04 01:28:04;;;;;;;32.65;9.00;;;7.70;99.90;;;;;;5072127;28;20048;-77
2022/01/04 01:30:32;;;;;;;33.78;7.10;;;7.60;99.90;;;;;;5054068;28;20380;-77
2022/01/04 01:32:58;;;;;;;30.70;8.65;;;7.60;99.90;;;;;;5074454;28;20056;-77
2022/01/04 01:35:24;;;;;;;33.63;9.15;;;7.60;99.90;;;;;;5059283;28;20041;-77
2022/01/04 01:37:49;;;;;;;30.33;8.70;;;7.60;99.90;;;;;;5071629;28;20058;-77
2022/01/04 01:40:15;;;;;;;35.60;9.65;;;7.60;99.90;;;;;;5071446;28;20044;-77
2022/01/04 01:42:41;;;;;;;29.45;8.40;;;7.60;99.90;;;;;;5060632;28;20048;-77
2022/01/04 01:45:08;;;;;;;24.60;6.95;;;7.60;99.90;;;;;;5073713;28;20102;-77
2022/01/04 01:47:33;;;;;;;39.03;8.43;;;7.60;99.90;;;;;;5073480;28;20075;-77
2022/01/04 01:49:59;;;;;;;30.77;8.38;;;7.60;99.90;;;;;;5092194;28;20518;-77
2022/01/04 01:52:25;;;;;;;33.28;9.65;;;7.70;99.90;;;;;;5056627;28;20503;-77
2022/01/04 01:54:50;;;;;;;35.10;9.00;;;7.70;99.90;;;;;;5053314;28;20040;-77
2022/01/04 01:57:16;;;;;;;39.38;8.93;;;7.70;99.90;;;;;;5071247;28;20041;-77
2022/01/04 01:59:41;;;;;;;29.50;8.77;;;7.70;99.90;;;;;;5053840;28;20186;-77
2022/01/04 02:02:07;;;;;;;29.92;8.63;;;7.70;99.90;;;;;;5071079;28;20048;-77
2022/01/04 02:04:32;;;;;;;37.95;9.50;;;7.70;99.90;;;;;;5053044;28;20062;-77
2022/01/04 02:06:58;;;;;;;41.40;10.00;;;7.70;99.90;;;;;;5071379;28;20040;-77
2022/01/04 02:09:26;;;;;;;32.67;9.30;;;7.80;99.90;;;;;;5069449;28;20425;-77
2022/01/04 02:11:53;;;;;;;27.48;8.25;;;7.80;99.90;;;;;;5073378;28;20052;-77
2022/01/04 02:14:19;;;;;;;30.25;8.05;;;7.80;99.90;;;;;;5073572;28;20044;-77
2022/01/04 02:16:45;;;;;;;29.00;9.32;;;7.80;99.90;;;;;;5073174;28;20559;-77
2022/01/04 02:19:10;;;;;;;28.00;8.57;;;7.80;99.90;;;;;;5072917;28;20044;-77
2022/01/04 02:21:36;;;;;;;33.03;9.75;;;7.80;99.90;;;;;;5072987;28;20172;-77
2022/01/04 02:24:03;;;;;;;36.38;10.27;;;7.90;99.90;;;;;;5073257;28;20512;-77
2022/01/04 02:26:30;;;;;;;31.33;9.38;;;7.90;99.90;;;;;;5090635;28;20391;-77
2022/01/04 02:28:57;;;;;;;37.95;10.32;;;7.90;99.90;;;;;;5073247;28;20048;-77
2022/01/04 02:31:22;;;;;;;39.63;10.45;;;7.90;99.90;;;;;;5090900;28;20036;-77
2022/01/04 02:33:48;;;;;;;30.83;9.38;;;8.00;99.90;;;;;;5072657;28;20486;-77
2022/01/04 02:36:14;;;;;;;32.03;9.40;;;8.00;99.90;;;;;;5072842;28;20090;-77
2022/01/04 02:38:39;;;;;;;36.15;9.50;;;8.00;99.90;;;;;;5072532;28;20075;-77
2022/01/04 02:41:05;;;;;;;39.97;10.35;;;8.00;99.90;;;;;;5090959;28;20044;-78
2022/01/04 02:43:31;;;;;;;28.50;8.57;;;8.00;99.90;;;;;;5074579;28;20144;-77
2022/01/04 02:45:57;;;;;;;32.03;8.85;;;8.00;99.90;;;;;;5052598;28;20437;-77
2022/01/04 02:48:22;;;;;;;30.95;8.55;;;8.00;99.90;;;;;;5052131;28;20083;-77
2022/01/04 02:50:50;;;;;;;26.88;8.32;;;8.00;99.90;;;;;;5052482;28;20044;-78
2022/01/04 02:53:16;;;;;;;25.48;8.73;;;7.90;99.90;;;;;;5070269;28;20044;-78
2022/01/04 02:55:42;;;;;;;33.38;9.13;;;8.00;99.90;;;;;;5052643;28;20040;-77
2022/01/04 02:58:07;;;;;;;31.35;8.30;;;8.00;99.90;;;;;;5051920;28;20048;-77
2022/01/04 03:00:33;;;;;;;31.92;9.10;;;8.00;99.90;;;;;;5052150;28;20159;-77
2022/01/04 03:02:59;;;;;;;32.42;8.43;;;8.00;99.90;;;;;;5052431;28;20058;-78
2022/01/04 03:05:24;;;;;;;29.63;8.45;;;8.00;99.90;;;;;;5053049;28;20151;-78
2022/01/04 03:07:50;;;;;;;28.60;8.45;;;7.90;99.90;;;;;;5052459;28;20601;-77
2022/01/04 03:10:16;;;;;;;34.00;8.18;;;8.00;99.90;;;;;;5070260;28;20053;-77
2022/01/04 03:12:43;;;;;;;29.05;7.80;;;8.00;99.90;;;;;;5052568;28;20052;-77
2022/01/04 03:15:10;;;;;;;33.05;7.85;;;8.00;99.90;;;;;;5070307;28;20056;-77
2022/01/04 03:17:35;;;;;;;36.13;8.02;;;8.00;99.90;;;;;;5052618;28;20530;-77
2022/01/04 03:20:01;;;;;;;28.23;7.63;;;8.00;99.90;;;;;;5070929;28;20048;-78
2022/01/04 03:22:27;;;;;;;31.38;8.05;;;8.10;99.90;;;;;;5052702;28;20048;-77
2022/01/04 03:24:52;;;;;;;30.75;7.13;;;8.00;99.90;;;;;;5036180;28;20041;-78
2022/01/04 03:27:18;;;;;;;36.42;7.40;;;8.00;99.90;;;;;;5070597;28;20528;-77
2022/01/04 03:29:44;;;;;;;37.65;8.40;;;8.00;99.90;;;;;;5052973;28;20053;-77
2022/01/04 03:32:10;;;;;;;30.65;7.88;;;8.00;99.90;;;;;;5052126;28;20084;-77
2022/01/04 03:34:36;;;;;;;28.85;7.88;;;8.00;99.90;;;;;;5052330;28;20375;-77
2022/01/04 03:37:01;;;;;;;28.08;7.70;;;8.00;99.90;;;;;;5070587;28;20051;-77
2022/01/04 03:39:27;;;;;;;35.20;7.93;;;8.00;99.90;;;;;;5052342;28;20044;-78
2022/01/04 03:41:53;;;;;;;27.77;8.20;;;8.00;99.90;;;;;;5073193;28;20406;-78
2022/01/04 03:44:20;;;;;;;25.00;6.68;;;8.00;99.90;;;;;;5071582;28;20036;-78
2022/01/04 03:46:51;;;;;;;30.40;7.57;;;8.00;99.90;;;;;;5072647;28;20056;-78
2022/01/04 03:49:17;;;;;;;34.88;7.85;;;8.00;99.90;;;;;;5090168;28;20056;-77
2022/01/04 03:51:42;;;;;;;27.30;7.85;;;8.00;99.90;;;;;;5090516;28;20062;-78
2022/01/04 03:54:08;;;;;;;43.53;8.40;;;8.00;99.90;;;;;;5072428;28;20048;-77
2022/01/04 03:56:34;;;;;;;34.85;9.02;;;8.00;99.90;;;;;;5090053;28;20044;-77
2022/01/04 03:59:00;;;;;;;31.38;8.35;;;8.00;99.90;;;;;;5090217;28;20043;-77
2022/01/04 04:01:25;;;;;;;30.92;8.00;;;8.00;99.90;;;;;;5072021;28;20056;-78
2022/01/04 04:03:52;;;;;;;36.80;9.48;;;8.00;99.90;;;;;;5072132;28;20066;-77
2022/01/04 04:06:17;;;;;;;32.85;9.05;;;8.00;99.90;;;;;;5071733;28;20051;-77
2022/01/04 04:08:43;;;;;;;33.40;9.35;;;8.00;99.90;;;;;;5071860;28;20056;-77
2022/01/04 04:11:11;;;;;;;27.42;8.00;;;8.00;99.90;;;;;;5071944;28;20083;-78
2022/01/04 04:13:37;;;;;;;27.33;8.57;;;8.00;99.90;;;;;;5072116;28;20051;-78
2022/01/04 04:16:03;;;;;;;25.77;8.63;;;8.00;99.90;;;;;;5071799;28;20531;-78
2022/01/04 04:18:28;;;;;;;28.40;8.57;;;8.00;99.90;;;;;;5055165;28;20127;-77
2022/01/04 04:20:54;;;;;;;35.00;9.23;;;8.00;99.90;;;;;;5071967;28;20130;-77
2022/01/04 04:23:20;;;;;;;28.90;9.40;;;8.00;99.90;;;;;;5071719;28;20470;-77
2022/01/04 04:25:46;;;;;;;37.30;8.45;;;7.90;99.90;;;;;;5071089;28;20444;-77
2022/01/04 04:28:12;;;;;;;39.80;10.15;;;7.90;99.90;;;;;;5072191;28;20539;-77
2022/01/04 04:30:37;;;;;;;32.47;8.75;;;7.90;99.90;;;;;;5071639;28;20047;-78
2022/01/04 04:33:04;;;;;;;35.35;9.68;;;7.90;99.90;;;;;;5089537;28;20047;-77
2022/01/04 04:35:31;;;;;;;34.20;9.48;;;7.90;99.90;;;;;;5054945;28;20044;-77
2022/01/04 04:37:58;;;;;;;32.80;9.70;;;7.90;99.90;;;;;;5071616;28;20044;-77
2022/01/04 04:40:24;;;;;;;38.65;9.20;;;7.90;99.90;;;;;;5072004;28;20052;-77
2022/01/04 04:42:50;;;;;;;31.77;9.50;;;7.90;99.90;;;;;;5060942;28;20102;-77
2022/01/04 04:45:15;;;;;;;32.60;9.23;;;7.90;99.90;;;;;;5051440;28;20047;-77
2022/01/04 04:47:41;;;;;;;36.92;10.00;;;7.90;99.90;;;;;;5069279;28;20056;-77
2022/01/04 04:50:07;;;;;;;36.55;10.57;;;7.90;99.90;;;;;;5051188;28;20044;-77
2022/01/04 04:52:32;;;;;;;37.53;10.25;;;7.90;99.90;;;;;;5050437;28;20074;-77
2022/01/04 04:54:58;;;;;;;32.38;9.40;;;7.90;99.90;;;;;;5050398;28;20049;-77
2022/01/04 04:57:24;;;;;;;33.97;10.00;;;7.90;99.90;;;;;;5033807;28;20048;-77
2022/01/04 04:59:49;;;;;;;23.10;9.15;;;7.90;99.90;;;;;;5050462;28;20037;-77
2022/01/04 05:02:15;;;;;;;30.27;10.20;;;7.90;99.90;;;;;;5050460;28;20080;-77
2022/01/04 05:04:40;;;;;;;40.10;10.60;;;7.90;99.90;;;;;;5050555;28;20123;-78
2022/01/04 05:07:06;;;;;;;28.50;9.52;;;7.90;99.90;;;;;;5050464;28;20415;-77
2022/01/04 05:09:32;;;;;;;47.05;10.25;;;7.90;99.90;;;;;;5049942;28;20414;-77
2022/01/04 05:11:57;;;;;;;35.17;10.85;;;7.90;99.90;;;;;;5033360;28;20052;-77
2022/01/04 05:14:24;;;;;;;37.83;10.18;;;8.00;99.90;;;;;;5050048;28;20147;-77
2022/01/04 05:16:50;;;;;;;34.00;10.65;;;7.90;99.90;;;;;;5050129;28;20131;-78
2022/01/04 05:19:15;;;;;;;30.30;10.18;;;7.90;99.90;;;;;;5050102;28;20040;-77
2022/01/04 05:21:41;;;;;;;33.85;11.40;;;7.90;99.90;;;;;;5033374;28;20048;-77
2022/01/04 05:24:07;;;;;;;37.00;10.68;;;7.90;99.90;;;;;;5049890;28;20090;-78
2022/01/04 05:26:33;;;;;;;37.75;10.05;;;7.90;99.90;;;;;;5049932;28;20127;-77
2022/01/04 05:29:00;;;;;;;43.78;11.45;;;7.80;99.90;;;;;;5050201;28;20049;-77
2022/01/04 05:31:25;;;;;;;31.23;9.95;;;7.80;99.90;;;;;;5049989;28;20569;-77
2022/01/04 05:33:51;;;;;;;38.45;10.32;;;7.80;99.90;;;;;;5049821;28;20152;-77
2022/01/04 05:36:17;;;;;;;38.22;10.23;;;7.80;99.90;;;;;;5032925;28;20080;-77
2022/01/04 05:38:43;;;;;;;47.83;11.70;;;7.80;99.90;;;;;;5050047;28;20045;-77
2022/01/04 05:41:09;;;;;;;35.53;11.13;;;7.80;99.90;;;;;;5050261;28;20095;-77
2022/01/04 05:43:35;;;;;;;39.63;10.90;;;7.80;99.90;;;;;;5066586;28;20071;-77
2022/01/04 05:46:01;;;;;;;34.35;11.25;;;7.80;99.90;;;;;;5069869;28;20674;-77
2022/01/04 05:48:27;;;;;;;34.90;11.50;;;7.80;99.90;;;;;;5070112;28;20133;-77
2022/01/04 05:50:52;;;;;;;37.38;12.02;;;7.80;99.90;;;;;;5087924;28;20040;-77
2022/01/04 05:53:18;;;;;;;40.63;14.18;;;7.80;99.90;;;;;;5070153;28;20051;-78
2022/01/04 05:55:44;;;;;;;36.50;13.10;;;7.90;99.90;;;;;;5090384;28;20354;-78
2022/01/04 05:58:09;;;;;;;36.22;12.95;;;7.90;99.90;;;;;;5073711;28;20082;-77
2022/01/04 06:00:35;;;;;;;32.75;12.35;;;7.90;99.90;;;;;;5091588;28;20152;-78
2022/01/04 06:03:01;;;;;;;47.20;13.77;;;7.90;99.90;;;;;;5073615;28;20490;-78
2022/01/04 06:05:28;;;;;;;36.08;12.00;;;7.90;99.90;;;;;;5091469;28;20036;-77
2022/01/04 06:07:53;;;;;;;38.80;13.00;;;7.90;99.90;;;;;;5073355;28;20047;-77
2022/01/04 06:10:20;;;;;;;47.05;12.20;;;7.90;99.90;;;;;;5073394;28;20052;-77
2022/01/04 06:15:14;;;;;;;44.15;13.45;;;7.90;99.90;;;;;;5091499;28;20135;-77
2022/01/04 06:17:42;;;;;;;36.67;12.98;;;7.90;99.90;;;;;;5072864;28;20439;-77
2022/01/04 06:20:11;;;;;;;43.97;13.02;;;7.90;99.90;;;;;;5091404;28;20067;-77
2022/01/04 06:22:38;;;;;;;29.23;12.15;;;7.90;99.90;;;;;;5073128;28;20098;-77
2022/01/04 06:25:06;;;;;;;31.27;11.50;;;7.90;99.90;;;;;;5073465;28;20568;-77
2022/01/04 06:27:32;;;;;;;36.47;13.77;;;7.90;99.90;;;;;;5090609;28;20075;-77
2022/01/04 06:29:58;;;;;;;37.72;12.05;;;7.90;99.90;;;;;;5072755;28;20469;-78
2022/01/04 06:32:23;;;;;;;43.65;13.55;;;7.90;99.90;;;;;;5073224;28;20046;-77
2022/01/04 06:34:50;;;;;;;41.92;12.95;;;7.90;99.90;;;;;;5056000;28;20373;-77
2022/01/04 06:37:16;;;;;;;35.65;12.77;;;7.90;99.90;;;;;;5055982;28;20044;-77
2022/01/04 06:39:42;;;;;;;43.10;13.68;;;7.80;99.90;;;;;;5072964;28;20039;-78
2022/01/04 06:42:09;;;;;;;37.60;13.00;;;7.90;99.90;;;;;;5067832;28;20097;-78
2022/01/04 06:44:34;;;;;;;46.78;14.25;;;7.80;99.90;;;;;;5052074;28;20045;-77
2022/01/04 06:47:00;;;;;;;45.85;15.70;;;7.90;99.90;;;;;;5053151;28;20134;-77
2022/01/04 06:49:26;;;;;;;40.63;15.55;;;7.80;99.90;;;;;;5052490;28;20098;-77
2022/01/04 06:51:51;;;;;;;38.17;14.27;;;7.80;99.90;;;;;;5052451;28;20509;-77
2022/01/04 06:54:19;;;;;;;48.30;15.68;;;7.80;99.90;;;;;;5052542;28;20053;-77
2022/01/04 06:56:45;;;;;;;40.78;14.73;;;7.80;99.90;;;;;;5052806;28;20434;-77
2022/01/04 06:59:12;;;;;;;26.27;6.10;;;7.80;99.90;;;;;;5051916;28;20036;-77
2022/01/04 07:01:38;;;;;;;18.13;4.28;;;7.70;99.90;;;;;;5070106;28;20158;-77
2022/01/04 07:04:05;;;;;;;9.82;2.60;;;7.60;99.90;;;;;;5053007;28;20044;-78
2022/01/04 07:06:31;;;;;;;14.00;4.32;;;7.50;99.90;;;;;;5052121;28;20041;-78
2022/01/04 07:08:57;;;;;;;11.60;4.63;;;7.40;99.90;;;;;;5065626;28;20055;-76
2022/01/04 07:11:23;;;;;;;25.13;7.78;;;7.40;99.90;;;;;;5072333;28;20215;-76
2022/01/04 07:13:48;;;;;;;25.80;6.30;;;7.30;99.90;;;;;;5071172;28;20362;-76
2022/01/04 07:16:14;;;;;;;29.40;9.88;;;7.40;99.90;;;;;;5072857;28;20608;-76
2022/01/04 07:18:40;;;;;;;37.00;11.85;;;7.40;99.90;;;;;;5071180;28;20093;-76
2022/01/04 07:21:05;;;;;;;46.78;14.13;;;7.40;99.90;;;;;;5083985;28;20039;-76
2022/01/04 07:23:31;;;;;;;38.55;12.98;;;7.50;99.90;;;;;;5069687;28;20510;-77
2022/01/04 07:25:57;;;;;;;42.55;14.75;;;7.50;99.90;;;;;;5052900;28;20514;-77
2022/01/04 07:28:23;;;;;;;47.58;13.88;;;7.60;99.90;;;;;;5054055;28;20499;-77
2022/01/04 07:30:49;;;;;;;23.05;6.28;;;7.60;99.90;;;;;;5052773;28;20044;-77
2022/01/04 07:33:17;;;;;;;4.22;1.33;;;7.60;99.90;;;;;;5052987;28;20447;-77
2022/01/04 07:35:43;;;;;;;7.88;1.58;;;7.50;99.90;;;;;;5055412;28;20054;-76
2022/01/04 07:38:09;;;;;;;7.43;1.08;;;7.20;99.90;;;;;;5072724;28;20050;-77
2022/01/04 07:40:35;;;;;;;6.13;0.77;;;7.00;99.90;;;;;;5039413;28;20153;-76
2022/01/04 07:43:01;;;;;;;7.30;1.20;;;6.90;99.90;;;;;;5062611;28;20082;-76
2022/01/04 07:45:28;;;;;;;8.68;1.13;;;6.80;99.90;;;;;;5060717;28;20040;-76
2022/01/04 07:47:55;;;;;;;9.07;1.77;;;6.80;99.90;;;;;;5088133;28;20387;-76
2022/01/04 07:50:20;;;;;;;10.63;1.65;;;6.80;99.90;;;;;;5088968;28;20039;-76
2022/01/04 07:52:46;;;;;;;10.57;1.58;;;6.80;99.90;;;;;;5070976;28;20067;-76
2022/01/04 07:55:11;;;;;;;8.82;1.17;;;6.80;99.90;;;;;;5090205;28;20040;-76
2022/01/04 07:57:39;;;;;;;6.70;0.90;;;6.90;99.90;;;;;;5090725;28;20052;-76
2022/01/04 08:00:07;;;;;;;10.40;1.45;;;6.90;99.90;;;;;;5072084;28;20126;-76
2022/01/04 08:02:32;;;;;;;8.43;0.90;;;6.90;99.90;;;;;;5055577;28;20052;-76
2022/01/04 08:04:58;;;;;;;5.90;0.88;;;6.90;99.90;;;;;;5058127;28;20048;-77
2022/01/04 08:07:23;;;;;;;9.15;1.25;;;6.90;99.90;;;;;;5090162;28;20048;-77
2022/01/04 08:09:49;;;;;;;12.10;1.77;;;6.90;99.90;;;;;;5088176;28;20048;-77
2022/01/04 08:12:14;;;;;;;8.02;1.42;;;6.90;99.90;;;;;;5089917;28;20455;-77
2022/01/04 08:14:40;;;;;;;16.30;2.22;;;6.90;99.90;;;;;;5089891;28;20442;-77
2022/01/04 08:17:06;;;;;;;7.75;1.15;;;6.90;99.90;;;;;;5088451;28;20066;-77
2022/01/04 08:19:32;;;;;;;13.05;1.65;;;6.90;99.90;;;;;;5089778;28;20083;-77
2022/01/04 08:21:57;;;;;;;9.23;1.88;;;6.90;99.90;;;;;;5065233;28;20425;-76
2022/01/04 08:24:23;;;;;;;10.82;2.35;;;6.90;99.90;;;;;;5087556;28;20056;-77
2022/01/04 08:26:48;;;;;;;11.95;2.20;;;7.00;99.90;;;;;;5061364;28;20072;-77
2022/01/04 08:29:14;;;;;;;11.38;2.55;;;7.00;99.90;;;;;;5055247;28;20048;-76
2022/01/04 08:31:40;;;;;;;16.90;2.80;;;7.00;99.90;;;;;;5036078;28;20170;-77
2022/01/04 08:34:05;;;;;;;20.85;3.38;;;7.00;99.90;;;;;;5070494;28;20044;-77
2022/01/04 08:36:31;;;;;;;16.80;3.97;;;7.00;99.90;;;;;;5052995;28;20110;-77
2022/01/04 08:38:57;;;;;;;21.90;4.55;;;7.00;99.90;;;;;;5082672;28;20083;-77
2022/01/04 08:41:22;;;;;;;18.10;4.72;;;7.10;99.90;;;;;;5066110;28;20043;-77
2022/01/04 08:43:48;;;;;;;19.00;5.03;;;7.10;99.90;;;;;;5064578;28;20066;-76
2022/01/04 08:46:14;;;;;;;18.70;5.18;;;7.20;99.90;;;;;;5066303;28;20040;-77
2022/01/04 08:48:40;;;;;;;16.77;5.47;;;7.20;99.90;;;;;;5069766;28;20090;-76
2022/01/04 08:51:05;;;;;;;21.63;5.28;;;7.20;99.90;;;;;;5081207;28;20076;-77
2022/01/04 08:53:31;;;;;;;30.83;6.40;;;7.30;99.90;;;;;;5069384;28;20074;-77
2022/01/04 08:56:01;;;;;;;28.83;6.72;;;7.30;99.90;;;;;;5074883;28;20405;-76
2022/01/04 08:58:28;;;;;;;24.70;6.97;;;7.40;99.90;;;;;;5088500;28;20543;-77
2022/01/04 09:00:55;;;;;;;23.23;6.85;;;7.40;99.90;;;;;;5079201;28;20418;-77
2022/01/04 09:03:21;;;;;;;34.88;7.65;;;7.40;99.90;;;;;;5069003;28;20808;-77
2022/01/04 09:05:46;;;;;;;29.17;7.15;;;7.40;99.90;;;;;;5069648;28;20052;-77
2022/01/04 09:08:12;;;;;;;18.83;5.05;;;7.40;99.90;;;;;;5086363;28;20040;-76
2022/01/04 09:10:37;;;;;;;12.88;3.08;;;7.40;99.90;;;;;;5069845;28;20403;-76
2022/01/04 09:13:12;;;;;;;13.30;2.00;;;7.40;99.90;;;;;;5070344;28;20047;-77
2022/01/04 09:20:50;;;;;;;14.02;1.77;;;7.30;99.90;;;;;;5065817;28;20060;-77
2022/01/04 09:23:20;;;;;;;13.00;1.35;;;7.20;99.90;;;;;;5068844;28;20056;-77
2022/01/04 09:25:51;;;;;;;10.05;1.50;;;7.20;99.90;;;;;;5066798;28;20108;-78
2022/01/04 09:28:19;;;;;;;6.88;1.05;;;7.10;99.90;;;;;;5050338;28;20051;-77
2022/01/04 09:30:48;;;;;;;5.93;0.70;;;7.10;99.90;;;;;;5051739;28;20060;-77
2022/01/04 09:33:14;;;;;;;6.70;0.90;;;7.00;99.90;;;;;;5083609;28;20036;-77
2022/01/04 09:35:41;;;;;;;6.18;0.60;;;7.00;99.90;;;;;;5085404;28;20395;-78
2022/01/04 09:38:07;;;;;;;10.27;0.95;;;6.90;99.90;;;;;;5073294;28;20048;-78
2022/01/04 09:40:35;;;;;;;8.60;0.40;;;6.90;99.90;;;;;;5088257;28;20046;-77
2022/01/04 09:43:03;;;;;;;6.20;0.50;;;6.90;99.90;;;;;;5071203;28;20518;-78
2022/01/04 09:45:29;;;;;;;5.80;0.73;;;6.90;99.90;;;;;;5072126;28;20052;-77
2022/01/04 09:47:55;;;;;;;10.63;1.30;;;6.80;99.90;;;;;;5074075;28;20047;-78
2022/01/04 09:50:21;;;;;;;5.63;0.32;;;6.90;99.90;;;;;;5069110;28;20036;-78
2022/01/04 09:52:48;;;;;;;7.43;0.70;;;6.90;99.90;;;;;;5054440;28;20056;-78
2022/01/04 09:55:14;;;;;;;2.90;0.32;;;6.80;99.90;;;;;;5084830;28;20036;-77
2022/01/04 09:57:41;;;;;;;5.13;0.52;;;6.90;99.90;;;;;;5092833;28;20612;-78
2022/01/04 10:00:08;;;;;;;6.10;0.50;;;6.80;99.90;;;;;;5074292;28;20044;-77
2022/01/04 10:02:35;;;;;;;3.97;0.90;;;6.90;99.90;;;;;;5074535;28;20040;-77
2022/01/04 10:05:23;;;;;;;7.05;0.43;;;6.90;99.90;;;;;;5058015;28;20098;-78
2022/01/04 10:08:00;;;;;;;6.95;0.63;;;6.90;99.90;;;;;;5058579;28;20102;-78
2022/01/04 10:10:26;;;;;;;9.25;0.50;;;6.90;99.90;;;;;;5053806;28;20506;-78
2022/01/04 10:12:59;;;;;;;4.13;0.38;;;6.80;99.90;;;;;;5054679;28;20052;-78
2022/01/04 10:15:33;;;;;;;3.92;0.30;;;6.80;99.90;;;;;;5061561;28;20375;-75
2022/01/04 10:18:23;;;;;;;2.95;0.32;;;6.80;99.90;;;;;;5080578;28;20506;-76
2022/01/04 10:20:58;;;;;;;3.03;0.28;;;6.80;99.90;;;;;;5082300;28;20052;-76
2022/01/04 10:23:25;;;;;;;4.18;0.60;;;6.70;99.90;;;;;;5054044;28;20110;-77
2022/01/04 10:25:52;;;;;;;3.78;0.40;;;6.70;99.90;;;;;;5060935;28;20044;-77
2022/01/04 10:28:32;;;;;;;2.38;0.52;;;6.70;99.90;;;;;;5072027;28;20123;-77
2022/01/04 10:31:06;;;;;;;5.90;0.70;;;6.60;99.90;;;;;;5074042;28;20617;-77
2022/01/04 10:33:34;;;;;;;2.65;0.43;;;6.40;99.90;;;;;;5091618;28;20102;-77
2022/01/04 10:36:05;;;;;;;3.13;0.38;;;6.40;99.90;;;;;;5071658;28;20118;-77
2022/01/04 10:38:32;;;;;;;2.20;0.30;;;6.40;99.90;;;;;;5073936;28;20448;-77
2022/01/04 10:41:07;;;;;;;3.63;0.32;;;6.30;99.90;;;;;;5073558;28;20052;-77
2022/01/04 10:43:41;;;;;;;5.50;0.50;;;6.40;99.90;;;;;;5072402;28;20687;-77
2022/01/04 10:46:07;;;;;;;4.85;0.30;;;6.40;99.90;;;;;;5073939;28;20032;-77
2022/01/04 10:48:39;;;;;;;8.57;1.27;;;6.40;99.90;;;;;;5073156;28;20555;-78
2022/01/04 10:51:05;;;;;;;6.32;0.82;;;6.30;99.90;;;;;;5090114;28;20098;-77
2022/01/04 10:53:35;;;;;;;9.90;1.20;;;6.30;99.90;;;;;;5069624;28;20052;-77
2022/01/04 10:56:04;;;;;;;5.60;1.17;;;6.30;99.90;;;;;;5070235;28;20132;-77
2022/01/04 10:58:36;;;;;;;7.22;2.35;;;6.30;99.90;;;;;;5069786;28;20047;-77
2022/01/04 11:01:08;;;;;;;10.85;2.63;;;6.30;99.90;;;;;;5071913;28;20044;-77
2022/01/04 11:03:45;;;;;;;6.15;1.60;;;6.30;99.90;;;;;;5072093;28;20052;-77
2022/01/04 11:06:23;;;;;;;9.95;3.08;;;6.30;99.90;;;;;;5071775;28;20048;-77
2022/01/04 11:08:48;;;;;;;7.65;1.25;;;6.30;99.90;;;;;;5072897;28;20064;-77
2022/01/04 11:11:14;;;;;;;5.95;0.57;;;6.30;99.90;;;;;;5060159;28;20060;-78
2022/01/04 11:13:40;;;;;;;6.40;0.50;;;6.30;99.90;;;;;;5057404;28;20043;-77
2022/01/04 11:16:06;;;;;;;8.43;0.63;;;6.30;99.90;;;;;;5067251;28;20064;-77
2022/01/04 11:18:33;;;;;;;8.07;0.82;;;6.40;99.90;;;;;;5056122;28;20044;-79
2022/01/04 11:21:00;;;;;;;6.38;0.75;;;6.40;99.90;;;;;;5072401;28;20595;-77
2022/01/04 11:23:32;;;;;;;8.10;0.55;;;6.50;99.90;;;;;;5070841;28;20044;-77
2022/01/04 11:25:59;;;;;;;11.55;1.63;;;6.50;99.90;;;;;;5071512;28;20078;-77
2022/01/04 11:28:26;;;;;;;9.00;1.45;;;6.50;99.90;;;;;;5089631;28;20039;-76
2022/01/04 11:31:21;;;;;;;6.82;0.90;;;6.40;99.90;;;;;;5054290;28;20127;-76
2022/01/04 11:34:06;;;;;;;5.65;0.90;;;6.30;99.90;;;;;;5077881;28;20052;-77
2022/01/04 11:36:38;;;;;;;7.45;1.40;;;6.20;99.90;;;;;;5070733;28;20511;-77
2022/01/04 11:39:41;;;;;;;7.22;1.20;;;6.20;99.90;;;;;;5083143;28;20049;-77
2022/01/04 11:42:09;;;;;;;8.57;1.60;;;6.20;99.90;;;;;;5061840;28;20082;-77
2022/01/04 11:44:43;;;;;;;4.90;0.88;;;6.20;99.90;;;;;;5069908;28;20118;-77
2022/01/04 11:47:11;;;;;;;7.97;1.40;;;6.10;99.90;;;;;;5071132;28;20040;-77
2022/01/04 11:50:06;;;;;;;9.07;2.13;;;6.20;99.90;;;;;;5067910;28;20098;-77
2022/01/04 11:52:36;;;;;;;;;;;6.30;99.90;;;;;;5088499;28;20094;-77
2022/01/04 11:55:33;;;;;;;5.28;0.60;;;6.30;99.90;;;;;;5071587;28;19920;-77
2022/01/04 11:58:14;;;;;;;6.25;1.02;;;6.50;99.90;;;;;;5070224;28;20048;-77
2022/01/04 12:00:45;;;;;;;8.40;1.40;;;6.60;99.90;;;;;;5074243;28;20093;-77
2022/01/04 12:03:19;;;;;;;6.43;1.75;;;6.60;99.90;;;;;;5061536;28;20052;-78
2022/01/04 12:06:01;;;;;;;6.95;2.00;;;6.70;99.90;;;;;;5078447;28;20072;-77
2022/01/04 12:08:33;;;;;;;11.98;1.30;;;6.70;99.90;;;;;;5090158;28;20048;-78
2022/01/04 12:10:59;;;;;;;8.13;0.63;;;6.70;99.90;;;;;;5057594;28;20579;-77
2022/01/04 12:13:45;;;;;;;6.00;0.50;;;6.70;99.90;;;;;;5069424;28;20049;-77
2022/01/04 12:16:11;;;;;;;7.53;0.82;;;6.70;99.90;;;;;;5052113;28;20087;-77
2022/01/04 12:18:36;;;;;;;10.73;1.38;;;6.70;99.90;;;;;;5069676;28;20044;-77
2022/01/04 12:21:15;;;;;;;4.50;0.40;;;6.70;99.90;;;;;;5070149;28;20086;-78
2022/01/04 12:23:48;;;;;;;5.90;0.50;;;6.70;99.90;;;;;;5088602;28;20051;-78
2022/01/04 12:26:16;;;;;;;5.32;0.40;;;6.70;99.90;;;;;;5071220;28;20048;-77
2022/01/04 12:28:58;;;;;;;7.15;0.77;;;6.60;99.90;;;;;;5072167;28;20169;-77
2022/01/04 12:31:35;;;;;;;6.03;0.55;;;6.60;99.90;;;;;;5068007;28;20055;-77
2022/01/04 12:34:37;;;;;;;6.25;1.80;;;6.60;99.90;;;;;;5070373;28;20116;-77
2022/01/04 12:37:05;;;;;;;5.80;1.20;;;6.60;99.90;;;;;;5069638;28;20375;-78
2022/01/04 12:39:50;;;;;;;6.78;0.50;;;6.70;99.90;;;;;;5071553;28;20047;-78
2022/01/04 12:42:16;;;;;;;6.03;0.50;;;6.70;99.90;;;;;;5083007;28;20040;-78
2022/01/04 12:44:43;;;;;;;4.70;0.50;;;6.70;99.90;;;;;;5089774;28;20131;-77
2022/01/04 12:47:09;;;;;;;2.22;0.30;;;6.70;99.90;;;;;;5067437;28;20072;-77
2022/01/04 12:49:36;;;;;;;7.03;0.77;;;6.70;99.90;;;;;;5067451;28;20040;-77
2022/01/04 12:52:05;;;;;;;11.02;2.08;;;6.60;99.90;;;;;;5086236;28;20073;-77
2022/01/04 12:54:36;;;;;;;8.77;0.60;;;6.60;99.90;;;;;;5089444;28;20083;-77
2022/01/04 12:57:03;;;;;;;;;;;6.60;99.90;;;;;;5071288;28;20087;-77
2022/01/04 12:59:30;;;;;;;;;;;6.50;99.90;;;;;;5089875;28;20398;-77
2022/01/04 13:01:57;;;;;;;;;;;6.50;99.90;;;;;;5071682;28;19920;-77
2022/01/04 13:04:24;;;;;;;;;;;6.50;99.90;;;;;;5069154;28;19920;-78